Time;durP1;ratioP1;P1;durP2;ratioP2;P2;SDS_P1;SDS_P2;PMS_P1;PMS_P2;Temp;Humidity;BMP_temperature;BMP_pressure;BME280_temperature;BME280_humidity;BME280_pressure;Samples;Min_cycle;Max_cycle;Signal;HPM_P1;HPM_P2
2021/08/30 00:01:15;;;;;;;21.75;17.45;;;;;;;15.06;100.00;98629.17;1736971;82;21030;-67
2021/08/30 00:03:42;;;;;;;18.60;16.25;;;;;;;15.07;100.00;98633.49;1737258;82;21308;-67
2021/08/30 00:06:09;;;;;;;20.92;17.77;;;;;;;15.04;100.00;98615.16;1736800;82;20979;-67
2021/08/30 00:08:36;;;;;;;27.67;19.35;;;;;;;15.00;100.00;98629.85;1737185;82;21010;-66
2021/08/30 00:11:03;;;;;;;26.73;20.15;;;;;;;14.97;100.00;98635.08;1737217;82;20822;-66
2021/08/30 00:13:31;;;;;;;28.50;19.80;;;;;;;14.98;100.00;98630.70;1737022;82;20842;-67
2021/08/30 00:15:57;;;;;;;29.10;20.00;;;;;;;14.96;100.00;98635.61;1736892;82;20940;-66
2021/08/30 00:18:25;;;;;;;24.98;19.73;;;;;;;14.93;100.00;98624.62;1737075;82;20932;-66
2021/08/30 00:20:54;;;;;;;21.42;17.52;;;;;;;14.95;100.00;98620.52;1736393;82;20926;-67
2021/08/30 00:23:21;;;;;;;17.40;15.60;;;;;;;14.93;100.00;98613.82;1753868;81;20917;-67
2021/08/30 00:25:48;;;;;;;23.22;18.02;;;;;;;14.93;100.00;98611.91;1738860;81;21718;-67
2021/08/30 00:28:15;;;;;;;22.50;16.57;;;;;;;14.91;100.00;98606.00;1738900;82;20959;-67
2021/08/30 00:30:42;;;;;;;21.55;18.48;;;;;;;14.91;100.00;98607.36;1738995;82;20928;-66
2021/08/30 00:33:09;;;;;;;23.80;17.25;;;;;;;14.91;100.00;98612.76;1738774;81;20987;-66
2021/08/30 00:35:37;;;;;;;19.95;16.25;;;;;;;14.90;100.00;98609.83;1738959;81;20976;-67
2021/08/30 00:38:06;;;;;;;18.80;16.30;;;;;;;14.90;100.00;98615.78;1739150;81;21042;-67
2021/08/30 00:40:36;;;;;;;20.75;17.50;;;;;;;14.90;100.00;98619.84;1757571;81;20923;-67
2021/08/30 00:43:03;;;;;;;;;;;;;;;14.90;100.00;98614.44;1759966;81;20927;-67
2021/08/30 00:45:30;;;;;;;29.25;19.20;;;;;;;14.90;100.00;98611.73;1724118;82;20091;-67
2021/08/30 00:47:57;;;;;;;24.07;20.48;;;;;;;14.88;100.00;98613.37;1724345;83;20948;-67
2021/08/30 00:50:24;;;;;;;22.35;18.90;;;;;;;14.91;100.00;98614.67;1705271;83;21069;-67
2021/08/30 00:52:51;;;;;;;24.70;19.85;;;;;;;14.93;100.00;98609.77;1724014;83;20889;-68
2021/08/30 00:55:18;;;;;;;22.02;19.12;;;;;;;14.92;100.00;98586.53;1724228;83;20945;-68
2021/08/30 00:57:45;;;;;;;22.13;17.98;;;;;;;14.92;100.00;98573.03;1705622;83;20924;-68
2021/08/30 01:00:13;;;;;;;21.85;17.42;;;;;;;14.95;100.00;98600.25;1724327;83;21042;-68
2021/08/30 01:02:41;;;;;;;22.87;18.82;;;;;;;14.99;100.00;98655.81;1724200;83;21442;-67
2021/08/30 01:05:31;;;;;;;24.87;17.65;;;;;;;15.05;100.00;98684.34;1724584;83;20885;-70
2021/08/30 01:36:04;;;;;;;17.27;15.48;;;;;;;15.52;100.00;98628.64;1859561;76;22637;-67
2021/08/30 01:38:31;;;;;;;19.07;15.80;;;;;;;15.49;100.00;98626.00;1819436;78;20830;-67
2021/08/30 01:40:58;;;;;;;24.77;16.77;;;;;;;15.49;100.00;98608.42;1819521;77;21068;-67
2021/08/30 01:43:25;;;;;;;18.12;14.70;;;;;;;15.48;100.00;98601.95;1819179;78;20952;-67
2021/08/30 01:45:51;;;;;;;20.90;15.68;;;;;;;15.45;100.00;98610.13;1819531;77;20894;-66
2021/08/30 01:48:18;;;;;;;20.48;15.98;;;;;;;15.47;100.00;98603.87;1819416;77;20932;-66
2021/08/30 01:50:45;;;;;;;21.90;15.68;;;;;;;15.47;100.00;98601.16;1819606;78;20838;-66
2021/08/30 01:53:11;;;;;;;20.40;15.60;;;;;;;15.50;100.00;98603.80;1819454;78;20972;-65
2021/08/30 01:55:44;;;;;;;21.68;16.57;;;;;;;15.51;100.00;98604.06;1796778;78;20909;-66
2021/08/30 02:03:31;;;;;;;20.45;16.42;;;;;;;15.56;100.00;98605.29;1819394;77;21387;-67
2021/08/30 02:06:02;;;;;;;24.80;18.02;;;;;;;15.57;100.00;98627.95;1819343;77;21703;-67
2021/08/30 02:08:31;;;;;;;21.17;17.12;;;;;;;15.60;100.00;98652.22;1819179;78;20867;-67
2021/08/30 02:11:01;;;;;;;19.40;16.90;;;;;;;15.62;100.00;98662.19;1819470;78;20850;-67
2021/08/30 02:13:29;;;;;;;26.30;18.62;;;;;;;15.61;100.00;98669.51;1796590;79;20909;-68
2021/08/30 02:15:59;;;;;;;23.95;19.02;;;;;;;15.62;100.00;98673.80;1819493;78;21442;-67
2021/08/30 02:19:09;;;;;;;21.82;19.00;;;;;;;15.64;100.00;98677.00;1819388;78;21151;-68
2021/08/30 02:21:45;;;;;;;21.80;18.07;;;;;;;15.63;100.00;98662.45;1819418;78;20902;-67
2021/08/30 02:24:39;;;;;;;22.67;18.00;;;;;;;15.63;100.00;98654.34;1825197;76;20849;-67
2021/08/30 02:27:28;;;;;;;24.72;18.23;;;;;;;15.64;100.00;98654.56;1844175;77;20884;-67
2021/08/30 02:30:03;;;;;;;23.18;18.20;;;;;;;15.65;100.00;98665.63;1849899;76;20950;-67
2021/08/30 02:32:33;;;;;;;26.02;17.90;;;;;;;15.64;100.00;98667.53;1850093;77;21147;-67
2021/08/30 02:35:01;;;;;;;21.20;17.85;;;;;;;15.68;100.00;98683.14;1852361;75;20903;-67
2021/08/30 02:37:33;;;;;;;24.35;18.00;;;;;;;15.69;100.00;98673.94;1845455;76;21022;-67
2021/08/30 02:40:00;;;;;;;21.50;17.05;;;;;;;15.71;100.00;98659.58;1822626;78;20906;-68
2021/08/30 02:42:28;;;;;;;22.05;16.35;;;;;;;15.70;100.00;98644.44;1822452;78;20950;-68
2021/08/30 02:44:55;;;;;;;19.62;16.12;;;;;;;15.71;100.00;98625.77;1822722;78;21026;-69
2021/08/30 02:47:22;;;;;;;19.42;16.02;;;;;;;15.71;100.00;98613.59;1795514;78;21271;-68
2021/08/30 02:49:48;;;;;;;18.65;15.05;;;;;;;15.72;100.00;98606.50;1795066;78;21409;-68
2021/08/30 02:52:17;;;;;;;17.87;15.23;;;;;;;15.75;100.00;98613.20;1822476;78;21018;-68
2021/08/30 02:54:43;;;;;;;19.02;14.87;;;;;;;15.79;100.00;98604.71;1822933;78;20852;-68
2021/08/30 02:57:10;;;;;;;20.02;15.53;;;;;;;15.78;100.00;98590.95;1795073;78;21106;-68
2021/08/30 02:59:36;;;;;;;18.23;15.50;;;;;;;15.80;100.00;98585.47;1822908;77;20974;-68
2021/08/30 03:02:04;;;;;;;18.62;15.25;;;;;;;15.82;100.00;98581.08;1822466;77;20868;-68
2021/08/30 03:04:30;;;;;;;19.12;14.95;;;;;;;15.84;100.00;98599.16;1822709;77;20903;-67
2021/08/30 03:06:58;;;;;;;24.82;16.12;;;;;;;15.89;100.00;98587.41;1822381;78;20966;-68
2021/08/30 03:09:25;;;;;;;20.62;16.15;;;;;;;15.90;100.00;98578.98;1822410;77;21166;-68
2021/08/30 03:11:52;;;;;;;19.60;16.17;;;;;;;15.92;100.00;98577.30;1794888;78;20858;-68
2021/08/30 03:14:25;;;;;;;23.07;17.48;;;;;;;15.91;100.00;98581.92;1822927;78;21389;-67
2021/08/30 03:16:57;;;;;;;22.82;17.20;;;;;;;15.95;100.00;98600.50;1822459;77;20840;-67
2021/08/30 03:19:24;;;;;;;22.00;17.80;;;;;;;15.98;100.00;98595.02;1822877;77;20848;-64
2021/08/30 03:21:50;;;;;;;23.38;17.12;;;;;;;15.99;100.00;98594.68;1822497;78;21084;-66
2021/08/30 03:24:19;;;;;;;24.63;19.55;;;;;;;15.94;100.00;98577.23;1822184;78;20970;-66
2021/08/30 03:26:48;;;;;;;22.73;19.32;;;;;;;15.96;100.00;98594.52;1822502;78;21381;-66
2021/08/30 03:29:19;;;;;;;32.38;21.52;;;;;;;15.98;100.00;98600.42;1795392;78;20993;-67
2021/08/30 03:31:47;;;;;;;28.75;21.35;;;;;;;16.00;100.00;98609.83;1795072;78;21507;-66
2021/08/30 03:34:13;;;;;;;26.93;19.77;;;;;;;16.02;100.00;98614.91;1822705;77;21078;-67
2021/08/30 03:36:39;;;;;;;29.63;21.45;;;;;;;16.03;100.00;98615.96;1816036;79;21373;-66
2021/08/30 03:39:06;;;;;;;27.70;21.05;;;;;;;16.04;100.00;98641.11;1759468;79;20904;-67
2021/08/30 03:41:34;;;;;;;24.27;19.73;;;;;;;16.06;100.00;98615.89;1816374;79;21022;-67
2021/08/30 03:44:01;;;;;;;28.10;21.10;;;;;;;16.05;100.00;98600.21;1816538;79;20868;-67
2021/08/30 03:46:28;;;;;;;21.73;18.50;;;;;;;16.06;100.00;98572.02;1815946;78;21063;-67
2021/08/30 03:48:55;;;;;;;28.12;20.23;;;;;;;16.06;100.00;98569.88;1784850;79;20920;-67
2021/08/30 03:51:23;;;;;;;25.90;18.77;;;;;;;16.06;100.00;98584.20;1816250;79;20832;-66
2021/08/30 03:53:51;;;;;;;22.75;17.98;;;;;;;16.07;100.00;98593.14;1816510;79;20900;-66
2021/08/30 03:56:17;;;;;;;23.22;18.60;;;;;;;16.08;100.00;98596.08;1816434;77;20879;-65
2021/08/30 03:58:45;;;;;;;28.57;20.92;;;;;;;16.15;100.00;98620.00;1816009;77;21131;-66
2021/08/30 04:01:11;;;;;;;24.00;20.52;;;;;;;16.17;100.00;98629.93;1815987;79;20852;-66
2021/08/30 04:03:39;;;;;;;23.07;18.82;;;;;;;16.19;100.00;98631.77;1816240;79;20904;-66
2021/08/30 04:06:08;;;;;;;28.60;21.53;;;;;;;16.22;100.00;98637.37;1816232;79;20821;-66
2021/08/30 04:08:35;;;;;;;27.15;22.67;;;;;;;16.26;100.00;98649.16;1816324;79;21604;-65
2021/08/30 04:11:02;;;;;;;26.73;22.40;;;;;;;16.33;100.00;98656.84;1815867;77;21165;-65
2021/08/30 04:13:28;;;;;;;34.73;24.40;;;;;;;16.35;100.00;98662.74;1815850;79;20975;-67
2021/08/30 04:15:55;;;;;;;30.70;22.13;;;;;;;16.38;100.00;98663.46;1816008;79;21441;-66
2021/08/30 04:18:21;;;;;;;31.82;23.15;;;;;;;16.39;100.00;98658.30;1816330;79;20880;-67
2021/08/30 04:20:48;;;;;;;63.20;34.25;;;;;;;16.43;100.00;98655.19;1816137;77;20958;-66
2021/08/30 04:23:17;;;;;;;56.88;33.55;;;;;;;16.47;100.00;98658.87;1816246;79;21413;-66
2021/08/30 04:25:44;;;;;;;43.17;31.35;;;;;;;16.50;100.00;98656.09;1815884;79;20856;-65
2021/08/30 04:28:10;;;;;;;37.85;27.58;;;;;;;16.55;100.00;98653.80;1816243;78;21409;-66
2021/08/30 04:30:38;;;;;;;36.13;24.65;;;;;;;16.56;100.00;98675.70;1815972;79;20994;-67
2021/08/30 04:33:09;;;;;;;30.52;24.77;;;;;;;16.56;100.00;98705.50;1816434;77;20872;-67
2021/08/30 04:35:34;;;;;;;33.48;24.80;;;;;;;16.57;100.00;98728.78;1819442;78;21086;-67
2021/08/30 04:38:00;;;;;;;28.70;23.83;;;;;;;16.59;100.00;98717.08;1825377;78;20962;-67
2021/08/30 04:40:27;;;;;;;34.80;24.75;;;;;;;16.58;100.00;98705.42;1825225;77;20979;-67
2021/08/30 04:42:53;;;;;;;33.15;25.65;;;;;;;16.57;100.00;98703.05;1825298;78;20946;-67
2021/08/30 04:45:20;;;;;;;32.88;23.90;;;;;;;16.56;100.00;98693.30;1825144;78;20879;-67
2021/08/30 04:47:49;;;;;;;29.18;23.07;;;;;;;16.54;100.00;98677.95;1825268;78;20883;-67
2021/08/30 04:50:15;;;;;;;33.02;23.40;;;;;;;16.53;100.00;98650.60;1797385;78;20962;-67
2021/08/30 04:52:41;;;;;;;30.90;21.33;;;;;;;16.50;100.00;98671.78;1825643;77;20836;-67
2021/08/30 04:55:11;;;;;;;30.65;21.85;;;;;;;16.50;100.00;98670.99;1825355;78;20970;-67
2021/08/30 04:57:37;;;;;;;25.05;18.45;;;;;;;16.48;100.00;98671.30;1825428;78;20990;-67
2021/08/30 05:00:07;;;;;;;23.02;19.87;;;;;;;16.46;100.00;98655.94;1825116;78;21053;-67
2021/08/30 05:02:34;;;;;;;21.93;18.87;;;;;;;16.46;100.00;98647.81;1825612;78;21275;-67
2021/08/30 05:05:01;;;;;;;30.35;20.30;;;;;;;16.46;100.00;98684.91;1825305;78;20958;-67
2021/08/30 05:07:27;;;;;;;27.42;22.15;;;;;;;16.49;100.00;98685.09;1825497;78;21009;-67
2021/08/30 05:09:54;;;;;;;22.62;19.23;;;;;;;16.49;100.00;98672.12;1825203;78;21219;-67
2021/08/30 05:12:25;;;;;;;25.43;19.27;;;;;;;16.49;100.00;98652.59;1825532;77;21084;-67
2021/08/30 05:14:49;;;;;;;22.67;17.67;;;;;;;16.53;100.00;98650.60;1824986;78;21456;-67
2021/08/30 05:17:16;;;;;;;25.08;18.82;;;;;;;16.53;100.00;98639.77;1825205;77;20872;-67
2021/08/30 05:19:44;;;;;;;23.50;17.98;;;;;;;16.58;100.00;98638.27;1825382;77;20915;-67
2021/08/30 05:22:15;;;;;;;;;;;;;;;16.61;100.00;98624.08;1828012;78;21377;-67
2021/08/30 05:24:43;;;;;;;21.10;17.95;;;;;;;16.60;100.00;98619.78;1825116;77;21160;-67
2021/08/30 05:27:10;;;;;;;;;;;;;;;16.63;100.00;98609.66;1827965;78;20958;-67
2021/08/30 05:29:37;;;;;;;23.47;17.90;;;;;;;16.66;100.00;98603.64;1825501;78;20447;-67
2021/08/30 05:32:23;;;;;;;25.65;17.02;;;;;;;16.75;100.00;98604.98;1831966;76;21490;-65
2021/08/30 05:34:49;;;;;;;22.52;17.92;;;;;;;16.81;100.00;98580.72;1835378;76;21414;-67
2021/08/30 05:37:17;;;;;;;22.80;17.95;;;;;;;16.95;100.00;98594.10;1779570;78;21897;-67
2021/08/30 05:39:44;;;;;;;21.37;17.10;;;;;;;17.05;100.00;98592.42;1793306;79;20878;-67
2021/08/30 05:42:10;;;;;;;23.80;17.02;;;;;;;17.12;100.00;98594.91;1784812;79;20997;-67
2021/08/30 05:44:37;;;;;;;23.67;17.05;;;;;;;17.18;100.00;98590.67;1767990;79;20979;-67
2021/08/30 05:47:03;;;;;;;18.85;16.70;;;;;;;17.27;100.00;98586.84;1763577;80;21062;-67
2021/08/30 05:49:30;;;;;;;19.75;14.98;;;;;;;17.32;100.00;98592.09;1763618;80;21398;-67
2021/08/30 05:51:58;;;;;;;23.35;16.97;;;;;;;17.35;100.00;98579.80;1756695;80;21385;-66
2021/08/30 05:54:25;;;;;;;22.67;17.00;;;;;;;17.44;100.00;98598.22;1785327;79;20929;-66
2021/08/30 05:56:52;;;;;;;19.77;16.25;;;;;;;17.50;100.00;98594.20;1773320;80;20948;-67
2021/08/30 05:59:18;;;;;;;20.10;16.67;;;;;;;17.58;100.00;98598.02;1755166;81;21040;-66
2021/08/30 06:01:45;;;;;;;19.90;14.87;;;;;;;17.67;100.00;98585.22;1755352;81;22206;-67
2021/08/30 06:04:11;;;;;;;16.97;15.25;;;;;;;17.70;100.00;98595.42;1755035;81;20908;-65
2021/08/30 06:06:38;;;;;;;21.77;15.28;;;;;;;17.76;100.00;98591.42;1755137;81;20951;-65
2021/08/30 06:09:04;;;;;;;19.40;14.73;;;;;;;17.78;100.00;98595.16;1755012;81;20952;-66
2021/08/30 06:11:32;;;;;;;18.33;15.30;;;;;;;17.84;100.00;98586.33;1743115;82;20962;-67
2021/08/30 06:13:59;;;;;;;16.73;12.98;;;;;;;17.79;100.00;98594.05;1756848;79;21138;-69
2021/08/30 06:16:25;;;;;;;20.08;14.00;;;;;;;17.74;100.00;98592.88;1788663;80;20914;-65
2021/08/30 06:18:52;;;;;;;21.82;14.95;;;;;;;17.75;100.00;98587.10;1805114;79;20902;-66
2021/08/30 06:21:19;;;;;;;19.73;14.90;;;;;;;17.78;100.00;98589.19;1788904;80;20925;-65
2021/08/30 06:23:47;;;;;;;22.80;16.07;;;;;;;17.81;100.00;98595.09;1805477;79;21023;-67
2021/08/30 06:26:14;;;;;;;26.50;16.67;;;;;;;17.78;100.00;98589.19;1788594;79;21104;-65
2021/08/30 06:28:40;;;;;;;19.17;15.63;;;;;;;17.85;100.00;98585.98;1804900;79;21379;-66
2021/08/30 06:31:07;;;;;;;24.12;15.93;;;;;;;17.87;100.00;98585.66;1788960;80;20961;-66
2021/08/30 06:33:33;;;;;;;20.00;15.38;;;;;;;17.91;100.00;98581.98;1780530;79;20915;-66
2021/08/30 06:36:00;;;;;;;18.10;15.60;;;;;;;17.98;100.00;98596.38;1775463;79;21408;-67
2021/08/30 06:38:26;;;;;;;21.90;16.52;;;;;;;18.05;100.00;98599.39;1788800;80;21219;-67
2021/08/30 06:40:53;;;;;;;24.63;15.40;;;;;;;18.19;100.00;98584.23;1788831;79;20906;-68
2021/08/30 06:43:20;;;;;;;20.62;15.93;;;;;;;18.27;100.00;98579.88;1788722;79;20916;-67
2021/08/30 06:45:48;;;;;;;;;;;;;;;18.32;100.00;98581.05;1791341;80;21472;-67
2021/08/30 06:48:14;;;;;;;19.27;15.32;;;;;;;18.33;100.00;98582.09;1789059;80;20451;-66
2021/08/30 06:50:42;;;;;;;21.45;15.23;;;;;;;18.48;100.00;98579.92;1788918;79;21096;-67
2021/08/30 06:53:11;;;;;;;17.32;13.95;;;;;;;18.64;100.00;98584.98;1786832;79;20964;-67
2021/08/30 06:55:37;;;;;;;15.45;13.03;;;;;;;18.66;100.00;98583.31;1780936;80;20983;-68
2021/08/30 06:58:04;;;;;;;22.58;14.28;;;;;;;18.79;100.00;98591.78;1756663;80;20952;-68
2021/08/30 07:00:30;;;;;;;25.27;14.03;;;;;;;18.80;100.00;98596.91;1781142;80;20997;-67
2021/08/30 07:02:57;;;;;;;19.62;12.88;;;;;;;18.80;100.00;98594.75;1756211;81;21731;-66
2021/08/30 07:05:23;;;;;;;20.68;14.35;;;;;;;18.78;100.00;98566.53;1776395;80;20971;-66
2021/08/30 07:07:50;;;;;;;21.52;15.05;;;;;;;18.80;100.00;98560.77;1753216;81;20972;-67
2021/08/30 07:10:17;;;;;;;22.00;13.55;;;;;;;18.93;100.00;98582.02;1756875;78;20950;-68
2021/08/30 07:12:43;;;;;;;16.05;13.60;;;;;;;19.06;100.00;98587.19;1755615;80;21389;-67
2021/08/30 07:15:11;;;;;;;19.07;14.35;;;;;;;19.20;100.00;98584.16;1757177;81;21118;-67
2021/08/30 07:17:38;;;;;;;16.32;13.20;;;;;;;19.23;100.00;98588.14;1756998;80;20959;-68
2021/08/30 07:20:06;;;;;;;20.48;14.40;;;;;;;19.31;100.00;98592.72;1788334;79;21356;-67
2021/08/30 07:22:33;;;;;;;24.57;14.15;;;;;;;19.25;100.00;98594.05;1788435;78;20906;-68
2021/08/30 07:24:59;;;;;;;15.38;13.58;;;;;;;19.37;100.00;98596.81;1787842;80;21461;-68
2021/08/30 07:27:26;;;;;;;19.87;14.07;;;;;;;19.40;100.00;98590.72;1788241;80;21286;-67
2021/08/30 07:29:53;;;;;;;18.70;13.68;;;;;;;19.42;100.00;98590.36;1786690;80;20874;-68
2021/08/30 07:32:19;;;;;;;20.08;13.08;;;;;;;19.50;100.00;98590.86;1786472;80;20992;-68
2021/08/30 07:34:46;;;;;;;17.55;13.22;;;;;;;19.60;100.00;98594.52;1786786;80;21246;-69
2021/08/30 07:37:12;;;;;;;19.77;12.15;;;;;;;19.68;100.00;98594.22;1805603;79;20945;-68
2021/08/30 07:39:39;;;;;;;21.70;13.60;;;;;;;19.75;100.00;98604.55;1801776;79;21083;-68
2021/08/30 07:42:19;;;;;;;19.40;12.82;;;;;;;19.74;100.00;98587.41;1820143;78;28244;-68
2021/08/30 08:15:49;;;;;;;18.52;13.50;;;;;;;20.64;100.00;98595.72;1793007;77;22039;-67
2021/08/30 08:18:16;;;;;;;19.15;12.50;;;;;;;20.86;100.00;98596.57;1785647;79;20882;-67
2021/08/30 08:20:43;;;;;;;20.43;12.55;;;;;;;20.91;100.00;98599.63;1774155;79;21068;-67
2021/08/30 08:23:10;;;;;;;18.23;12.80;;;;;;;20.92;100.00;98594.39;1783226;80;20964;-66
2021/08/30 08:25:37;;;;;;;17.87;12.73;;;;;;;20.99;100.00;98598.69;1783098;79;20850;-65
2021/08/30 08:28:06;;;;;;;12.33;10.72;;;;;;;21.31;100.00;98594.16;1783093;80;21441;-65
2021/08/30 08:30:33;;;;;;;19.62;10.95;;;;;;;21.30;100.00;98592.55;1783419;80;20909;-64
2021/08/30 08:32:59;;;;;;;14.78;11.60;;;;;;;21.02;100.00;98598.02;1782990;80;21171;-66
2021/08/30 08:35:26;;;;;;;18.45;11.50;;;;;;;20.95;100.00;98591.78;1770186;80;20863;-65
2021/08/30 08:37:52;;;;;;;19.60;11.95;;;;;;;20.89;100.00;98587.69;1788801;80;20969;-66
2021/08/30 08:40:19;;;;;;;19.12;13.72;;;;;;;20.76;100.00;98580.70;1788848;80;20883;-65
2021/08/30 08:42:46;;;;;;;15.30;12.20;;;;;;;20.73;100.00;98575.94;1789119;80;20903;-65
2021/08/30 08:45:15;;;;;;;21.90;11.20;;;;;;;20.80;100.00;98579.42;1788841;80;21079;-65
2021/08/30 08:47:42;;;;;;;20.12;11.75;;;;;;;20.89;100.00;98579.51;1788600;80;20949;-65
2021/08/30 08:50:12;;;;;;;18.65;13.25;;;;;;;20.89;100.00;98569.17;1788979;80;20878;-65
2021/08/30 08:52:41;;;;;;;16.93;13.15;;;;;;;20.85;100.00;98566.36;1782610;80;21008;-66
2021/08/30 08:55:09;;;;;;;23.55;13.10;;;;;;;20.76;100.00;98573.30;1782700;80;20912;-63
2021/08/30 08:57:36;;;;;;;19.98;13.25;;;;;;;20.76;100.00;98570.58;1791116;79;21155;-65
2021/08/30 09:00:10;;;;;;;23.05;13.08;;;;;;;20.69;100.00;98552.64;1796619;79;20941;-64
2021/08/30 09:02:37;;;;;;;21.42;14.18;;;;;;;20.70;100.00;98527.53;1792941;79;20906;-64
2021/08/30 09:05:07;;;;;;;22.82;14.03;;;;;;;20.87;100.00;98541.45;1736392;81;20986;-64
2021/08/30 09:07:41;;;;;;;20.62;12.95;;;;;;;20.88;100.00;98540.33;1741299;81;20871;-65
2021/08/30 09:10:13;;;;;;;19.37;13.38;;;;;;;20.93;100.00;98542.23;1735474;81;21770;-64
2021/08/30 09:12:41;;;;;;;18.10;12.13;;;;;;;21.00;100.00;98529.37;1749021;81;20943;-64
2021/08/30 09:15:21;;;;;;;22.02;12.88;;;;;;;21.03;100.00;98536.06;1720980;82;20913;-66
2021/08/30 09:17:55;;;;;;;21.23;12.78;;;;;;;21.24;100.00;98544.02;1752106;82;21458;-65
2021/08/30 09:20:26;;;;;;;16.90;11.68;;;;;;;21.13;100.00;98543.74;1719013;83;20964;-66
2021/08/30 09:22:53;;;;;;;18.80;13.88;;;;;;;21.06;100.00;98517.05;1718871;83;22381;-65
2021/08/30 09:25:20;;;;;;;20.10;14.03;;;;;;;21.05;100.00;98528.33;1719002;83;20932;-65
2021/08/30 09:27:50;;;;;;;22.37;13.30;;;;;;;21.15;100.00;98534.64;1718360;83;20832;-64
2021/08/30 09:30:20;;;;;;;20.85;14.55;;;;;;;21.23;100.00;98537.77;1718220;83;20970;-65
2021/08/30 09:32:48;;;;;;;22.93;13.50;;;;;;;21.35;100.00;98536.92;1717776;83;21379;-65
2021/08/30 09:35:14;;;;;;;19.75;14.85;;;;;;;21.52;100.00;98538.56;1718592;83;21109;-65
2021/08/30 09:37:44;;;;;;;18.62;13.95;;;;;;;21.78;100.00;98541.56;1718108;83;20932;-66
2021/08/30 09:40:14;;;;;;;22.25;14.28;;;;;;;22.13;100.00;98555.06;1720665;83;20898;-66
2021/08/30 09:42:55;;;;;;;16.35;13.93;;;;;;;22.53;100.00;98556.19;1693226;84;21034;-65
2021/08/30 09:45:27;;;;;;;25.25;13.83;;;;;;;22.62;100.00;98550.52;1693329;84;20931;-65
2021/08/30 09:48:00;;;;;;;26.68;14.05;;;;;;;22.58;100.00;98540.08;1693324;84;22311;-65
2021/08/30 09:50:34;;;;;;;19.87;14.55;;;;;;;22.40;100.00;98535.02;1693310;84;20899;-65
2021/08/30 09:53:02;;;;;;;23.40;14.90;;;;;;;22.44;100.00;98540.00;1690395;84;21022;-64
2021/08/30 09:55:29;;;;;;;22.45;14.43;;;;;;;22.52;100.00;98545.63;1686121;84;20972;-65
2021/08/30 09:57:56;;;;;;;20.50;14.75;;;;;;;22.56;100.00;98536.32;1711819;83;21521;-65
2021/08/30 10:00:23;;;;;;;18.67;13.03;;;;;;;22.51;100.00;98539.92;1727770;83;21639;-65
2021/08/30 10:02:59;;;;;;;25.08;15.10;;;;;;;22.48;100.00;98554.52;1689328;83;21311;-65
2021/08/30 10:05:29;;;;;;;22.60;14.40;;;;;;;22.48;100.00;98557.83;1708431;83;20927;-64
2021/08/30 10:08:00;;;;;;;18.90;14.95;;;;;;;22.52;100.00;98561.45;1682303;83;20992;-65
2021/08/30 10:10:28;;;;;;;22.27;15.13;;;;;;;22.54;100.00;98572.01;1684394;83;20951;-66
2021/08/30 10:12:56;;;;;;;22.13;14.73;;;;;;;22.51;100.00;98567.27;1717300;83;20977;-66
2021/08/30 10:15:25;;;;;;;21.02;16.02;;;;;;;22.52;100.00;98570.23;1717391;83;20889;-66
2021/08/30 10:17:53;;;;;;;16.82;15.03;;;;;;;22.54;100.00;98591.15;1751005;82;20964;-67
2021/08/30 10:20:23;;;;;;;21.00;15.75;;;;;;;22.64;100.00;98602.92;1751187;81;28083;-67
2021/08/30 10:23:08;;;;;;;17.77;15.35;;;;;;;22.74;100.00;98602.94;1741598;81;20982;-67
2021/08/30 10:25:37;;;;;;;23.47;15.98;;;;;;;22.76;100.00;98605.53;1748725;81;21139;-66
2021/08/30 10:28:06;;;;;;;20.68;15.23;;;;;;;22.74;100.00;98613.30;1752729;82;20962;-66
2021/08/30 10:30:38;;;;;;;25.37;17.73;;;;;;;22.74;100.00;98622.09;1752031;81;20932;-67
2021/08/30 10:33:07;;;;;;;28.60;15.88;;;;;;;22.68;100.00;98618.81;1752137;82;20924;-67
2021/08/30 10:35:37;;;;;;;23.40;15.90;;;;;;;22.64;100.00;98623.44;1752241;81;21402;-67
2021/08/30 10:38:08;;;;;;;28.15;16.82;;;;;;;22.48;100.00;98626.19;1721856;83;21204;-67
2021/08/30 10:40:36;;;;;;;22.45;17.25;;;;;;;22.36;100.00;98631.18;1720564;83;20909;-66
2021/08/30 10:43:11;;;;;;;23.32;17.05;;;;;;;22.30;100.00;98625.78;1733436;82;20879;-66
2021/08/30 10:45:44;;;;;;;27.85;17.60;;;;;;;22.22;100.00;98628.92;1745949;81;20977;-67
2021/08/30 10:48:16;;;;;;;28.38;16.93;;;;;;;22.13;100.00;98622.02;1752475;82;20956;-66
2021/08/30 10:50:47;;;;;;;21.25;16.80;;;;;;;22.10;100.00;98621.33;1752113;81;20957;-65
2021/08/30 10:53:20;;;;;;;25.60;19.00;;;;;;;21.97;100.00;98619.27;1751914;81;20920;-65
2021/08/30 10:55:49;;;;;;;29.37;17.62;;;;;;;21.89;100.00;98620.24;1752231;81;20977;-65
2021/08/30 10:58:22;;;;;;;27.00;18.05;;;;;;;21.76;100.00;98613.49;1750890;81;20874;-65
2021/08/30 11:00:50;;;;;;;24.27;17.40;;;;;;;21.68;100.00;98604.09;1752318;82;21032;-65
2021/08/30 11:03:31;;;;;;;24.63;16.93;;;;;;;21.51;100.00;98611.48;1742776;81;21507;-66
2021/08/30 11:06:07;;;;;;;24.85;17.70;;;;;;;21.31;100.00;98606.98;1751673;81;20976;-66
2021/08/30 11:08:35;;;;;;;21.90;17.07;;;;;;;21.23;100.00;98607.94;1750704;82;21007;-65
2021/08/30 11:11:25;;;;;;;25.20;18.98;;;;;;;21.13;100.00;98605.92;1752320;81;20925;-66
2021/08/30 11:14:08;;;;;;;23.92;18.40;;;;;;;21.06;100.00;98605.71;1751774;80;20960;-65
2021/08/30 11:16:37;;;;;;;32.70;18.92;;;;;;;20.86;100.00;98603.39;1757735;81;21043;-65
2021/08/30 11:19:07;;;;;;;30.75;18.45;;;;;;;20.86;100.00;98603.39;1757040;81;21401;-63
2021/08/30 11:21:50;;;;;;;27.85;18.37;;;;;;;20.71;100.00;98614.45;1752111;81;20873;-64
2021/08/30 11:24:24;;;;;;;30.32;19.50;;;;;;;20.67;100.00;98618.98;1752277;81;20928;-63
2021/08/30 11:26:52;;;;;;;21.37;16.97;;;;;;;20.67;100.00;98618.98;1751996;81;20936;-63
2021/08/30 11:29:18;;;;;;;26.17;20.00;;;;;;;20.67;100.00;98621.72;1752263;81;21115;-66
2021/08/30 11:31:45;;;;;;;28.73;19.55;;;;;;;20.69;100.00;98621.38;1741958;81;20985;-64
2021/08/30 11:34:33;;;;;;;29.95;20.55;;;;;;;20.69;100.00;98621.38;1752655;81;20961;-64
2021/08/30 11:37:01;;;;;;;25.20;21.68;;;;;;;20.68;100.00;98626.05;1752693;81;20948;-64
2021/08/30 11:39:29;;;;;;;27.02;20.15;;;;;;;20.69;100.00;98633.08;1751624;81;20873;-61
2021/08/30 11:42:00;;;;;;;40.40;23.27;;;;;;;20.68;100.00;98630.72;1752299;82;21128;-64
2021/08/30 11:44:34;;;;;;;36.05;25.25;;;;;;;20.64;100.00;98632.52;1751965;82;20853;-63
2021/08/30 11:47:10;;;;;;;36.58;26.07;;;;;;;20.45;100.00;98637.95;1751682;81;20927;-63
2021/08/30 11:49:46;;;;;;;37.20;25.20;;;;;;;20.45;100.00;98637.95;1734902;82;20887;-65
2021/08/30 11:52:15;;;;;;;33.90;26.65;;;;;;;20.32;100.00;98641.83;1728289;81;20966;-65
2021/08/30 11:55:01;;;;;;;33.08;25.30;;;;;;;20.32;100.00;98641.83;1751379;81;21391;-65
2021/08/30 11:57:47;;;;;;;41.35;26.87;;;;;;;20.30;100.00;98648.97;1739216;81;20954;-65
2021/08/30 12:00:22;;;;;;;37.93;27.22;;;;;;;20.26;100.00;98654.89;1740656;81;21430;-64
2021/08/30 12:02:55;;;;;;;38.30;28.15;;;;;;;20.26;100.00;98654.07;1752363;82;21462;-64
2021/08/30 12:05:24;;;;;;;41.05;27.25;;;;;;;20.27;100.00;98646.14;1751140;82;20893;-64
2021/08/30 12:07:54;;;;;;;39.70;28.07;;;;;;;20.32;100.00;98648.06;1752178;82;21124;-64
2021/08/30 12:10:21;;;;;;;44.85;27.55;;;;;;;20.39;100.00;98645.36;1752056;82;20944;-65
2021/08/30 12:13:18;;;;;;;30.92;25.50;;;;;;;20.49;100.00;98644.31;1720938;82;20825;-63
2021/08/30 12:15:25;;;;;;;38.00;26.23;;;;;;;20.64;100.00;98641.49;1747026;82;20952;-64
2021/08/30 12:17:56;;;;;;;34.67;24.18;;;;;;;20.79;100.00;98625.57;1750145;82;21434;-67
2021/08/30 12:20:36;;;;;;;31.57;24.05;;;;;;;21.12;100.00;98620.71;1728054;82;21115;-67
2021/08/30 12:23:07;;;;;;;31.30;23.98;;;;;;;21.52;100.00;98618.52;1713797;83;20985;-67